sensor_id;sensor_type;location;lat;lon;timestamp;pressure;altitude;pressure_sealevel;temperature;humidity
17525;BME280;40431;52.198;9.902;2023-05-20T00:00:47;101632.06;;;12.77;82.74
17525;BME280;40431;52.198;9.902;2023-05-20T00:03:14;101634.03;;;12.75;82.22
17525;BME280;40431;52.198;9.902;2023-05-20T00:05:40;101638.72;;;12.72;81.99
17525;BME280;40431;52.198;9.902;2023-05-20T00:08:07;101628.16;;;12.65;82.42
17525;BME280;40431;52.198;9.902;2023-05-20T00:10:33;101632.25;;;12.57;82.91
17525;BME280;40431;52.198;9.902;2023-05-20T00:13:00;101635.94;;;12.56;82.92
17525;BME280;40431;52.198;9.902;2023-05-20T00:15:28;101633.69;;;12.46;83.12
17525;BME280;40431;52.198;9.902;2023-05-20T00:17:54;101639.13;;;12.46;83.33
17525;BME280;40431;52.198;9.902;2023-05-20T00:20:21;101639.13;;;12.46;83.50
17525;BME280;40431;52.198;9.902;2023-05-20T00:22:48;101636.03;;;12.54;84.51
17525;BME280;40431;52.198;9.902;2023-05-20T00:25:15;101630.59;;;12.54;83.77
17525;BME280;40431;52.198;9.902;2023-05-20T00:27:41;101634.81;;;12.60;84.05
17525;BME280;40431;52.198;9.902;2023-05-20T00:30:08;101635.53;;;12.63;82.93
17525;BME280;40431;52.198;9.902;2023-05-20T00:32:36;101633.03;;;12.59;82.40
17525;BME280;40431;52.198;9.902;2023-05-20T00:35:04;101631.44;;;12.55;82.72
17525;BME280;40431;52.198;9.902;2023-05-20T00:37:30;101625.22;;;12.52;82.53
17525;BME280;40431;52.198;9.902;2023-05-20T00:39:56;101614.81;;;12.43;82.83
17525;BME280;40431;52.198;9.902;2023-05-20T00:42:24;101624.59;;;12.47;84.97
17525;BME280;40431;52.198;9.902;2023-05-20T00:44:50;101615.44;;;12.48;84.03
17525;BME280;40431;52.198;9.902;2023-05-20T00:47:18;101616.09;;;12.36;83.42
17525;BME280;40431;52.198;9.902;2023-05-20T00:49:48;101621.22;;;12.42;83.64
17525;BME280;40431;52.198;9.902;2023-05-20T00:52:16;101621.03;;;12.45;84.41
17525;BME280;40431;52.198;9.902;2023-05-20T00:54:43;101622.72;;;12.48;84.89
17525;BME280;40431;52.198;9.902;2023-05-20T00:57:11;101619.91;;;12.49;85.21
17525;BME280;40431;52.198;9.902;2023-05-20T00:59:38;101620.75;;;12.51;85.02
17525;BME280;40431;52.198;9.902;2023-05-20T01:02:05;101618.81;;;12.53;84.59
17525;BME280;40431;52.198;9.902;2023-05-20T01:04:32;101614.34;;;12.52;84.80
17525;BME280;40431;52.198;9.902;2023-05-20T01:07:01;101618.97;;;12.50;85.14
17525;BME280;40431;52.198;9.902;2023-05-20T01:09:29;101611.75;;;12.49;83.77
17525;BME280;40431;52.198;9.902;2023-05-20T01:12:02;101617.94;;;12.35;83.81
17525;BME280;40431;52.198;9.902;2023-05-20T01:14:32;101609.34;;;12.26;85.24
17525;BME280;40431;52.198;9.902;2023-05-20T01:17:01;101617.09;;;12.16;85.59
17525;BME280;40431;52.198;9.902;2023-05-20T01:19:35;101616.47;;;12.11;86.45
17525;BME280;40431;52.198;9.902;2023-05-20T01:22:05;101618.06;;;12.15;87.45
17525;BME280;40431;52.198;9.902;2023-05-20T01:24:34;101606.88;;;12.21;88.02
17525;BME280;40431;52.198;9.902;2023-05-20T01:27:01;101600.56;;;12.21;87.50
17525;BME280;40431;52.198;9.902;2023-05-20T01:29:28;101603.81;;;12.10;86.67
17525;BME280;40431;52.198;9.902;2023-05-20T01:31:57;101604.84;;;12.07;86.70
17525;BME280;40431;52.198;9.902;2023-05-20T01:34:26;101609.41;;;12.07;87.50
17525;BME280;40431;52.198;9.902;2023-05-20T01:36:53;101612.97;;;12.09;88.09
17525;BME280;40431;52.198;9.902;2023-05-20T01:39:20;101616.25;;;12.15;89.26
17525;BME280;40431;52.198;9.902;2023-05-20T01:41:49;101607.91;;;12.18;88.71
17525;BME280;40431;52.198;9.902;2023-05-20T01:44:16;101608.66;;;12.22;88.57
17525;BME280;40431;52.198;9.902;2023-05-20T01:46:47;101607.69;;;12.23;88.54
17525;BME280;40431;52.198;9.902;2023-05-20T01:49:14;101601.75;;;12.15;88.20
17525;BME280;40431;52.198;9.902;2023-05-20T01:51:40;101598.38;;;12.10;88.22
17525;BME280;40431;52.198;9.902;2023-05-20T01:54:06;101603.91;;;12.08;88.31
17525;BME280;40431;52.198;9.902;2023-05-20T01:56:33;101600.78;;;11.98;88.52
17525;BME280;40431;52.198;9.902;2023-05-20T01:59:01;101594.75;;;11.92;88.46
17525;BME280;40431;52.198;9.902;2023-05-20T02:01:27;101591.06;;;11.93;88.66
17525;BME280;40431;52.198;9.902;2023-05-20T02:03:53;101599.28;;;11.91;89.40
17525;BME280;40431;52.198;9.902;2023-05-20T02:06:20;101605.78;;;11.89;89.91
17525;BME280;40431;52.198;9.902;2023-05-20T02:08:46;101592.31;;;11.85;90.85
17525;BME280;40431;52.198;9.902;2023-05-20T02:11:12;101590.09;;;11.94;92.11
17525;BME280;40431;52.198;9.902;2023-05-20T02:13:39;101596.22;;;11.99;92.33
17525;BME280;40431;52.198;9.902;2023-05-20T02:16:06;101600.16;;;11.92;90.89
17525;BME280;40431;52.198;9.902;2023-05-20T02:18:33;101595.59;;;11.92;91.08
17525;BME280;40431;52.198;9.902;2023-05-20T02:21:00;101597.31;;;11.95;91.41
17525;BME280;40431;52.198;9.902;2023-05-20T02:23:27;101598.06;;;11.98;92.04
17525;BME280;40431;52.198;9.902;2023-05-20T02:25:54;101602.69;;;11.96;91.13
17525;BME280;40431;52.198;9.902;2023-05-20T02:28:20;101601.81;;;11.96;91.04
17525;BME280;40431;52.198;9.902;2023-05-20T02:30:47;101597.31;;;11.95;91.74
17525;BME280;40431;52.198;9.902;2023-05-20T02:33:16;101610.22;;;11.90;91.32
17525;BME280;40431;52.198;9.902;2023-05-20T02:35:42;101599.22;;;11.93;92.85
17525;BME280;40431;52.198;9.902;2023-05-20T02:38:09;101594.53;;;11.96;93.19
17525;BME280;40431;52.198;9.902;2023-05-20T02:40:35;101596.38;;;11.96;92.86
17525;BME280;40431;52.198;9.902;2023-05-20T02:43:02;101592.03;;;11.92;92.09
17525;BME280;40431;52.198;9.902;2023-05-20T02:45:28;101589.38;;;11.90;92.48
17525;BME280;40431;52.198;9.902;2023-05-20T02:47:55;101585.75;;;11.90;92.59
17525;BME280;40431;52.198;9.902;2023-05-20T02:50:23;101600.63;;;11.82;92.49
17525;BME280;40431;52.198;9.902;2023-05-20T02:52:49;101597.41;;;11.74;93.30
17525;BME280;40431;52.198;9.902;2023-05-20T02:55:16;101594.19;;;11.66;94.24
17525;BME280;40431;52.198;9.902;2023-05-20T02:57:42;101590.97;;;11.58;94.92
17525;BME280;40431;52.198;9.902;2023-05-20T03:00:10;101594.94;;;11.50;95.91
17525;BME280;40431;52.198;9.902;2023-05-20T03:02:37;101586.78;;;11.50;96.08
17525;BME280;40431;52.198;9.902;2023-05-20T03:05:04;101598.88;;;11.43;97.11
17525;BME280;40431;52.198;9.902;2023-05-20T03:07:33;101593.78;;;11.37;97.62
17525;BME280;40431;52.198;9.902;2023-05-20T03:10:00;101589.28;;;11.36;97.70
17525;BME280;40431;52.198;9.902;2023-05-20T03:12:27;101595.81;;;11.32;98.39
17525;BME280;40431;52.198;9.902;2023-05-20T03:14:54;101593.84;;;11.35;98.62
17525;BME280;40431;52.198;9.902;2023-05-20T03:17:20;101593.78;;;11.37;99.04
17525;BME280;40431;52.198;9.902;2023-05-20T03:19:49;101591.72;;;11.42;98.27
17525;BME280;40431;52.198;9.902;2023-05-20T03:22:15;101592.59;;;11.43;97.85
17525;BME280;40431;52.198;9.902;2023-05-20T03:24:43;101595.38;;;11.41;98.72
17525;BME280;40431;52.198;9.902;2023-05-20T03:27:10;101597.94;;;11.44;98.37
17525;BME280;40431;52.198;9.902;2023-05-20T03:29:36;101591.56;;;11.45;98.81
17525;BME280;40431;52.198;9.902;2023-05-20T03:32:03;101595.97;;;11.48;97.78
17525;BME280;40431;52.198;9.902;2023-05-20T03:34:30;101601.31;;;11.49;98.50
17525;BME280;40431;52.198;9.902;2023-05-20T03:36:56;101596.56;;;11.55;97.62
17525;BME280;40431;52.198;9.902;2023-05-20T03:39:24;101589.50;;;11.50;97.90
17525;BME280;40431;52.198;9.902;2023-05-20T03:41:52;101588.69;;;11.48;98.30
17525;BME280;40431;52.198;9.902;2023-05-20T03:44:18;101592.44;;;11.46;98.29
17525;BME280;40431;52.198;9.902;2023-05-20T03:46:44;101596.84;;;11.48;97.99
17525;BME280;40431;52.198;9.902;2023-05-20T03:49:11;101595.31;;;11.43;98.02
17525;BME280;40431;52.198;9.902;2023-05-20T03:51:37;101600.97;;;11.38;98.73
17525;BME280;40431;52.198;9.902;2023-05-20T03:54:03;101601.47;;;11.46;98.48
17525;BME280;40431;52.198;9.902;2023-05-20T03:56:30;101599.03;;;11.40;98.89
17525;BME280;40431;52.198;9.902;2023-05-20T03:58:58;101608.28;;;11.36;98.80
17525;BME280;40431;52.198;9.902;2023-05-20T04:01:24;101601.25;;;11.32;98.99
17525;BME280;40431;52.198;9.902;2023-05-20T04:03:51;101605.50;;;11.38;99.08
17525;BME280;40431;52.198;9.902;2023-05-20T04:06:17;101594.06;;;11.31;99.20
17525;BME280;40431;52.198;9.902;2023-05-20T04:08:45;101599.47;;;11.31;99.68
17525;BME280;40431;52.198;9.902;2023-05-20T04:11:12;101597.72;;;11.30;100.00
17525;BME280;40431;52.198;9.902;2023-05-20T04:13:38;101591.41;;;11.29;99.96
17525;BME280;40431;52.198;9.902;2023-05-20T04:16:06;101599.31;;;11.34;99.80
17525;BME280;40431;52.198;9.902;2023-05-20T04:18:33;101597.34;;;11.38;99.87
17525;BME280;40431;52.198;9.902;2023-05-20T04:21:03;101601.69;;;11.42;99.57
17525;BME280;40431;52.198;9.902;2023-05-20T04:23:29;101597.16;;;11.42;99.33
17525;BME280;40431;52.198;9.902;2023-05-20T04:25:56;101596.50;;;11.37;99.47
17525;BME280;40431;52.198;9.902;2023-05-20T04:28:26;101591.72;;;11.42;99.56
17525;BME280;40431;52.198;9.902;2023-05-20T04:30:57;101590.81;;;11.42;100.00
17525;BME280;40431;52.198;9.902;2023-05-20T04:33:25;101583.63;;;11.41;99.39
17525;BME280;40431;52.198;9.902;2023-05-20T04:35:51;101585.38;;;11.42;99.47
17525;BME280;40431;52.198;9.902;2023-05-20T04:38:22;101589.00;;;11.42;99.81
17525;BME280;40431;52.198;9.902;2023-05-20T04:40:53;101586.56;;;11.36;99.68
17525;BME280;40431;52.198;9.902;2023-05-20T04:43:22;101579.44;;;11.33;99.82
17525;BME280;40431;52.198;9.902;2023-05-20T04:45:48;101578.50;;;11.34;100.00
17525;BME280;40431;52.198;9.902;2023-05-20T04:48:15;101580.41;;;11.32;100.00
17525;BME280;40431;52.198;9.902;2023-05-20T04:50:43;101578.44;;;11.36;100.00
17525;BME280;40431;52.198;9.902;2023-05-20T04:53:09;101584.44;;;11.43;100.00
17525;BME280;40431;52.198;9.902;2023-05-20T04:55:36;101587.91;;;11.46;100.00
17525;BME280;40431;52.198;9.902;2023-05-20T04:58:03;101599.03;;;11.59;100.00
17525;BME280;40431;52.198;9.902;2023-05-20T05:00:30;101594.19;;;11.66;98.50
17525;BME280;40431;52.198;9.902;2023-05-20T05:02:56;101595.94;;;11.67;98.34
17525;BME280;40431;52.198;9.902;2023-05-20T05:05:22;101582.59;;;11.62;98.07
17525;BME280;40431;52.198;9.902;2023-05-20T05:07:50;101590.84;;;11.61;98.48
17525;BME280;40431;52.198;9.902;2023-05-20T05:10:16;101587.22;;;11.60;98.50
17525;BME280;40431;52.198;9.902;2023-05-20T05:12:43;101586.44;;;11.58;98.93
17525;BME280;40431;52.198;9.902;2023-05-20T05:15:09;101585.41;;;11.61;98.12
17525;BME280;40431;52.198;9.902;2023-05-20T05:17:36;101587.22;;;11.60;98.59
17525;BME280;40431;52.198;9.902;2023-05-20T05:20:03;101590.97;;;11.58;98.33
17525;BME280;40431;52.198;9.902;2023-05-20T05:22:29;101593.69;;;11.58;99.47
17525;BME280;40431;52.198;9.902;2023-05-20T05:24:57;101587.13;;;11.62;99.49
17525;BME280;40431;52.198;9.902;2023-05-20T05:27:24;101588.13;;;11.61;99.00
17525;BME280;40431;52.198;9.902;2023-05-20T05:29:50;101588.69;;;11.67;100.00
17525;BME280;40431;52.198;9.902;2023-05-20T05:32:16;101584.63;;;11.76;99.42
17525;BME280;40431;52.198;9.902;2023-05-20T05:34:44;101589.59;;;11.85;99.41
17525;BME280;40431;52.198;9.902;2023-05-20T05:37:10;101584.31;;;11.82;99.07
17525;BME280;40431;52.198;9.902;2023-05-20T05:39:37;101577.41;;;11.75;99.44
17525;BME280;40431;52.198;9.902;2023-05-20T05:42:05;101589.94;;;11.79;99.33
17525;BME280;40431;52.198;9.902;2023-05-20T05:44:31;101587.69;;;11.88;99.73
17525;BME280;40431;52.198;9.902;2023-05-20T05:46:57;101582.19;;;11.89;99.85
17525;BME280;40431;52.198;9.902;2023-05-20T05:49:24;101591.81;;;11.96;100.00
17525;BME280;40431;52.198;9.902;2023-05-20T05:51:50;101581.50;;;12.03;100.00
17525;BME280;40431;52.198;9.902;2023-05-20T05:54:17;101575.03;;;12.06;100.00
17525;BME280;40431;52.198;9.902;2023-05-20T05:56:44;101577.38;;;12.13;100.00
17525;BME280;40431;52.198;9.902;2023-05-20T05:59:12;101578.56;;;12.25;100.00
17525;BME280;40431;52.198;9.902;2023-05-20T06:01:39;101577.28;;;12.32;99.52
17525;BME280;40431;52.198;9.902;2023-05-20T06:04:05;101576.31;;;12.33;100.00
17525;BME280;40431;52.198;9.902;2023-05-20T06:06:32;101572.25;;;12.42;99.97
17525;BME280;40431;52.198;9.902;2023-05-20T06:08:59;101575.75;;;12.44;99.84
17525;BME280;40431;52.198;9.902;2023-05-20T06:11:25;101579.28;;;12.46;100.00
17525;BME280;40431;52.198;9.902;2023-05-20T06:13:51;101575.69;;;12.63;100.00
17525;BME280;40431;52.198;9.902;2023-05-20T06:16:19;101579.59;;;12.75;99.28
17525;BME280;40431;52.198;9.902;2023-05-20T06:18:46;101586.81;;;12.92;98.83
17525;BME280;40431;52.198;9.902;2023-05-20T06:21:14;101578.16;;;13.01;95.97
17525;BME280;40431;52.198;9.902;2023-05-20T06:23:40;101579.28;;;12.97;95.45
17525;BME280;40431;52.198;9.902;2023-05-20T06:26:07;101577.78;;;12.92;95.68
17525;BME280;40431;52.198;9.902;2023-05-20T06:28:33;101571.25;;;12.78;96.41
17525;BME280;40431;52.198;9.902;2023-05-20T06:31:00;101581.81;;;12.84;96.30
17525;BME280;40431;52.198;9.902;2023-05-20T06:33:27;101582.28;;;12.93;96.33
17525;BME280;40431;52.198;9.902;2023-05-20T06:35:54;101573.16;;;12.94;95.05
17525;BME280;40431;52.198;9.902;2023-05-20T06:38:21;101580.19;;;12.98;95.87
17525;BME280;40431;52.198;9.902;2023-05-20T06:40:48;101571.47;;;12.91;96.38
17525;BME280;40431;52.198;9.902;2023-05-20T06:43:14;101569.63;;;12.92;97.91
17525;BME280;40431;52.198;9.902;2023-05-20T06:45:41;101565.44;;;13.02;97.62
17525;BME280;40431;52.198;9.902;2023-05-20T06:48:07;101561.91;;;13.00;96.07
17525;BME280;40431;52.198;9.902;2023-05-20T06:50:36;101562.25;;;12.94;96.41
17525;BME280;40431;52.198;9.902;2023-05-20T06:53:02;101567.06;;;12.89;96.75
17525;BME280;40431;52.198;9.902;2023-05-20T06:55:29;101561.78;;;12.85;98.14
17525;BME280;40431;52.198;9.902;2023-05-20T06:57:55;101572.16;;;12.95;98.05
17525;BME280;40431;52.198;9.902;2023-05-20T07:00:22;101563.75;;;12.99;97.38
17525;BME280;40431;52.198;9.902;2023-05-20T07:02:48;101554.03;;;13.11;97.55
17525;BME280;40431;52.198;9.902;2023-05-20T07:05:15;101546.84;;;13.26;96.52
17525;BME280;40431;52.198;9.902;2023-05-20T07:07:43;101543.75;;;13.16;96.18
17525;BME280;40431;52.198;9.902;2023-05-20T07:10:09;101541.56;;;13.07;97.50
17525;BME280;40431;52.198;9.902;2023-05-20T07:12:36;101539.34;;;12.98;97.77
17525;BME280;40431;52.198;9.902;2023-05-20T07:15:02;101542.84;;;13.00;99.34
17525;BME280;40431;52.198;9.902;2023-05-20T07:17:29;101533.44;;;12.90;97.83
17525;BME280;40431;52.198;9.902;2023-05-20T07:19:55;101548.88;;;12.89;98.65
17525;BME280;40431;52.198;9.902;2023-05-20T07:22:21;101542.13;;;12.80;98.32
17525;BME280;40431;52.198;9.902;2023-05-20T07:24:49;101545.44;;;12.85;99.86
17525;BME280;40431;52.198;9.902;2023-05-20T07:27:16;101543.88;;;12.97;99.05
17525;BME280;40431;52.198;9.902;2023-05-20T07:29:42;101536.44;;;13.01;98.76
17525;BME280;40431;52.198;9.902;2023-05-20T07:32:08;101544.19;;;13.09;100.00
17525;BME280;40431;52.198;9.902;2023-05-20T07:34:35;101533.63;;;13.18;98.59
17525;BME280;40431;52.198;9.902;2023-05-20T07:37:02;101531.97;;;13.32;99.67
17525;BME280;40431;52.198;9.902;2023-05-20T07:39:28;101535.78;;;13.45;98.30
17525;BME280;40431;52.198;9.902;2023-05-20T07:41:56;101538.44;;;13.63;97.93
17525;BME280;40431;52.198;9.902;2023-05-20T07:44:22;101532.78;;;13.82;97.85
17525;BME280;40431;52.198;9.902;2023-05-20T07:46:50;101541.00;;;13.96;96.50
17525;BME280;40431;52.198;9.902;2023-05-20T07:49:17;101548.56;;;14.07;95.78
17525;BME280;40431;52.198;9.902;2023-05-20T07:51:43;101543.41;;;14.17;95.95
17525;BME280;40431;52.198;9.902;2023-05-20T07:54:10;101541.78;;;14.29;96.31
17525;BME280;40431;52.198;9.902;2023-05-20T07:56:37;101537.31;;;14.42;95.47
17525;BME280;40431;52.198;9.902;2023-05-20T07:59:04;101533.66;;;14.58;95.83
17525;BME280;40431;52.198;9.902;2023-05-20T08:01:31;101545.88;;;14.66;94.13
17525;BME280;40431;52.198;9.902;2023-05-20T08:03:57;101537.31;;;14.73;93.15
17525;BME280;40431;52.198;9.902;2023-05-20T08:06:24;101526.50;;;14.71;91.33
17525;BME280;40431;52.198;9.902;2023-05-20T08:08:51;101521.78;;;14.59;91.53
17525;BME280;40431;52.198;9.902;2023-05-20T08:11:18;101528.38;;;14.40;92.39
17525;BME280;40431;52.198;9.902;2023-05-20T08:13:45;101526.63;;;14.39;93.09
17525;BME280;40431;52.198;9.902;2023-05-20T08:16:13;101524.84;;;14.38;92.21
17525;BME280;40431;52.198;9.902;2023-05-20T08:18:39;101533.22;;;14.35;92.66
17525;BME280;40431;52.198;9.902;2023-05-20T08:21:06;101528.03;;;14.30;94.25
17525;BME280;40431;52.198;9.902;2023-05-20T08:23:33;101522.53;;;14.32;93.54
17525;BME280;40431;52.198;9.902;2023-05-20T08:25:59;101526.00;;;14.34;93.27
17525;BME280;40431;52.198;9.902;2023-05-20T08:28:27;101524.94;;;14.36;93.97
17525;BME280;40431;52.198;9.902;2023-05-20T08:30:54;101530.59;;;14.33;94.78
17525;BME280;40431;52.198;9.902;2023-05-20T08:33:23;101523.97;;;14.38;93.47
17525;BME280;40431;52.198;9.902;2023-05-20T08:35:49;101517.81;;;14.34;94.26
17525;BME280;40431;52.198;9.902;2023-05-20T08:38:16;101515.97;;;14.34;94.44
17525;BME280;40431;52.198;9.902;2023-05-20T08:40:42;101526.81;;;14.36;94.32
17525;BME280;40431;52.198;9.902;2023-05-20T08:43:09;101522.72;;;14.43;94.33
17525;BME280;40431;52.198;9.902;2023-05-20T08:45:37;101527.41;;;14.56;94.08
17525;BME280;40431;52.198;9.902;2023-05-20T08:48:04;101513.38;;;14.62;93.80
17525;BME280;40431;52.198;9.902;2023-05-20T08:50:32;101517.88;;;14.63;93.33
17525;BME280;40431;52.198;9.902;2023-05-20T08:52:59;101514.22;;;14.64;93.86
17525;BME280;40431;52.198;9.902;2023-05-20T08:55:31;101519.09;;;14.73;93.66
17525;BME280;40431;52.198;9.902;2023-05-20T08:58:01;101518.19;;;14.73;93.15
17525;BME280;40431;52.198;9.902;2023-05-20T09:00:28;101520.44;;;14.80;93.17
17525;BME280;40431;52.198;9.902;2023-05-20T09:02:55;101512.47;;;14.77;92.10
17525;BME280;40431;52.198;9.902;2023-05-20T09:05:21;101518.41;;;14.69;92.37
17525;BME280;40431;52.198;9.902;2023-05-20T09:07:49;101511.28;;;14.67;93.00
17525;BME280;40431;52.198;9.902;2023-05-20T09:10:15;101514.59;;;14.72;92.89
17525;BME280;40431;52.198;9.902;2023-05-20T09:12:42;101514.00;;;14.81;93.39
17525;BME280;40431;52.198;9.902;2023-05-20T09:15:08;101514.00;;;14.96;90.89
17525;BME280;40431;52.198;9.902;2023-05-20T09:17:36;101515.78;;;14.82;89.49
17525;BME280;40431;52.198;9.902;2023-05-20T09:20:06;101514.00;;;14.81;89.64
17525;BME280;40431;52.198;9.902;2023-05-20T09:22:34;101510.97;;;14.72;88.09
17525;BME280;40431;52.198;9.902;2023-05-20T09:25:02;101516.53;;;14.84;90.39
17525;BME280;40431;52.198;9.902;2023-05-20T09:27:28;101511.34;;;15.09;89.67
17525;BME280;40431;52.198;9.902;2023-05-20T09:29:55;101507.50;;;15.40;87.71
17525;BME280;40431;52.198;9.902;2023-05-20T09:32:21;101495.53;;;15.56;84.42
17525;BME280;40431;52.198;9.902;2023-05-20T09:34:51;101506.47;;;15.56;83.41
17525;BME280;40431;52.198;9.902;2023-05-20T09:37:20;101496.06;;;15.61;84.86
17525;BME280;40431;52.198;9.902;2023-05-20T09:39:54;101499.06;;;15.85;85.83
17525;BME280;40431;52.198;9.902;2023-05-20T09:42:27;101502.72;;;15.98;84.88
17525;BME280;40431;52.198;9.902;2023-05-20T09:44:54;101504.06;;;16.18;82.18
17525;BME280;40431;52.198;9.902;2023-05-20T09:47:22;101487.16;;;15.99;81.08
17525;BME280;40431;52.198;9.902;2023-05-20T09:49:51;101491.47;;;16.16;83.85
17525;BME280;40431;52.198;9.902;2023-05-20T09:52:18;101503.53;;;16.52;83.49
17525;BME280;40431;52.198;9.902;2023-05-20T09:54:45;101497.06;;;16.79;81.66
17525;BME280;40431;52.198;9.902;2023-05-20T09:57:12;101496.94;;;16.80;77.87
17525;BME280;40431;52.198;9.902;2023-05-20T09:59:41;101503.19;;;16.82;77.00
17525;BME280;40431;52.198;9.902;2023-05-20T10:02:07;101496.84;;;16.69;78.49
17525;BME280;40431;52.198;9.902;2023-05-20T10:04:36;101494.13;;;16.69;78.60
17525;BME280;40431;52.198;9.902;2023-05-20T10:07:37;101485.78;;;16.70;77.77
17525;BME280;40431;52.198;9.902;2023-05-20T10:10:17;101483.41;;;16.53;78.15
17525;BME280;40431;52.198;9.902;2023-05-20T10:12:55;101475.19;;;16.66;78.84
17525;BME280;40431;52.198;9.902;2023-05-20T10:15:31;101471.91;;;16.61;77.95
17525;BME280;40431;52.198;9.902;2023-05-20T10:18:07;101479.09;;;16.62;78.79
17525;BME280;40431;52.198;9.902;2023-05-20T10:20:44;101480.41;;;16.43;77.45
17525;BME280;40431;52.198;9.902;2023-05-20T10:23:19;101479.75;;;16.27;80.88
17525;BME280;40431;52.198;9.902;2023-05-20T10:25:50;101467.72;;;16.16;80.47
17525;BME280;40431;52.198;9.902;2023-05-20T10:28:27;101472.09;;;16.06;80.94
17525;BME280;40431;52.198;9.902;2023-05-20T10:30:55;101467.03;;;16.00;80.50
17525;BME280;40431;52.198;9.902;2023-05-20T10:33:21;101459.38;;;16.05;80.65
17525;BME280;40431;52.198;9.902;2023-05-20T10:35:49;101459.84;;;16.25;82.13
17525;BME280;40431;52.198;9.902;2023-05-20T10:38:16;101464.88;;;16.44;81.14
17525;BME280;40431;52.198;9.902;2023-05-20T10:40:42;101463.22;;;16.67;80.35
17525;BME280;40431;52.198;9.902;2023-05-20T10:43:09;101463.75;;;16.72;78.16
17525;BME280;40431;52.198;9.902;2023-05-20T10:45:47;101469.03;;;16.62;78.77
17525;BME280;40431;52.198;9.902;2023-05-20T10:48:24;101461.91;;;16.47;78.42
17525;BME280;40431;52.198;9.902;2023-05-20T10:50:53;101464.53;;;16.48;78.94
17525;BME280;40431;52.198;9.902;2023-05-20T10:53:22;101467.19;;;16.37;79.03
17525;BME280;40431;52.198;9.902;2023-05-20T10:55:50;101458.53;;;16.43;78.75
17525;BME280;40431;52.198;9.902;2023-05-20T10:58:17;101452.84;;;16.46;79.54
17525;BME280;40431;52.198;9.902;2023-05-20T11:00:44;101450.66;;;16.51;79.92
17525;BME280;40431;52.198;9.902;2023-05-20T11:03:12;101452.72;;;16.35;79.57
17525;BME280;40431;52.198;9.902;2023-05-20T11:05:40;101443.22;;;16.28;79.77
17525;BME280;40431;52.198;9.902;2023-05-20T11:08:08;101446.72;;;16.43;81.06
17525;BME280;40431;52.198;9.902;2023-05-20T11:10:35;101450.53;;;16.40;81.93
17525;BME280;40431;52.198;9.902;2023-05-20T11:13:02;101444.94;;;16.42;80.95
17525;BME280;40431;52.198;9.902;2023-05-20T11:15:30;101443.31;;;16.52;79.43
17525;BME280;40431;52.198;9.902;2023-05-20T11:18:00;101442.13;;;16.30;80.38
17525;BME280;40431;52.198;9.902;2023-05-20T11:20:26;101445.50;;;16.21;81.15
17525;BME280;40431;52.198;9.902;2023-05-20T11:22:54;101439.69;;;16.26;80.72
17525;BME280;40431;52.198;9.902;2023-05-20T11:25:21;101435.00;;;16.28;80.87
17525;BME280;40431;52.198;9.902;2023-05-20T11:27:49;101427.22;;;16.34;80.91
17525;BME280;40431;52.198;9.902;2023-05-20T11:30:16;101414.22;;;16.38;80.58
17525;BME280;40431;52.198;9.902;2023-05-20T11:32:55;101419.53;;;16.52;81.10
17525;BME280;40431;52.198;9.902;2023-05-20T11:35:22;101410.34;;;16.53;80.23
17525;BME280;40431;52.198;9.902;2023-05-20T11:37:55;101413.63;;;16.59;81.42
17525;BME280;40431;52.198;9.902;2023-05-20T11:40:25;101413.31;;;16.63;80.02
17525;BME280;40431;52.198;9.902;2023-05-20T11:42:55;101397.66;;;16.40;80.67
17525;BME280;40431;52.198;9.902;2023-05-20T11:45:22;101393.94;;;16.41;79.97
17525;BME280;40431;52.198;9.902;2023-05-20T11:48:00;101392.06;;;16.54;81.14
17525;BME280;40431;52.198;9.902;2023-05-20T11:50:26;101391.09;;;16.42;79.86
17525;BME280;40431;52.198;9.902;2023-05-20T11:52:57;101394.59;;;16.44;80.00
17525;BME280;40431;52.198;9.902;2023-05-20T11:55:25;101391.94;;;16.56;79.84
17525;BME280;40431;52.198;9.902;2023-05-20T11:57:53;101388.84;;;16.73;80.53
17525;BME280;40431;52.198;9.902;2023-05-20T12:00:20;101387.44;;;16.67;80.88
17525;BME280;40431;52.198;9.902;2023-05-20T12:02:47;101391.88;;;16.81;81.40
17525;BME280;40431;52.198;9.902;2023-05-20T12:05:13;101389.38;;;16.78;78.16
17525;BME280;40431;52.198;9.902;2023-05-20T12:07:40;101379.00;;;16.58;79.37
17525;BME280;40431;52.198;9.902;2023-05-20T12:10:08;101389.53;;;16.51;81.06
17525;BME280;40431;52.198;9.902;2023-05-20T12:12:35;101387.34;;;16.43;81.76
17525;BME280;40431;52.198;9.902;2023-05-20T12:15:02;101372.56;;;16.46;81.98
17525;BME280;40431;52.198;9.902;2023-05-20T12:17:28;101371.16;;;16.40;82.34
17525;BME280;40431;52.198;9.902;2023-05-20T12:19:55;101380.34;;;16.39;82.48
17525;BME280;40431;52.198;9.902;2023-05-20T12:22:21;101380.03;;;16.31;82.05
17525;BME280;40431;52.198;9.902;2023-05-20T12:24:49;101376.75;;;16.26;82.45
17525;BME280;40431;52.198;9.902;2023-05-20T12:27:16;101371.81;;;16.31;84.02
17525;BME280;40431;52.198;9.902;2023-05-20T12:29:43;101375.88;;;16.38;83.15
17525;BME280;40431;52.198;9.902;2023-05-20T12:32:09;101366.91;;;16.23;83.77
17525;BME280;40431;52.198;9.902;2023-05-20T12:34:36;101362.31;;;16.24;84.15
17525;BME280;40431;52.198;9.902;2023-05-20T12:37:02;101361.66;;;16.33;83.48
17525;BME280;40431;52.198;9.902;2023-05-20T12:39:28;101361.06;;;16.53;82.92
17525;BME280;40431;52.198;9.902;2023-05-20T12:41:55;101359.81;;;16.70;81.01
17525;BME280;40431;52.198;9.902;2023-05-20T12:44:22;101366.50;;;16.79;81.61
17525;BME280;40431;52.198;9.902;2023-05-20T12:46:49;101357.66;;;17.00;82.78
17525;BME280;40431;52.198;9.902;2023-05-20T12:49:15;101359.94;;;17.06;78.00
17525;BME280;40431;52.198;9.902;2023-05-20T12:51:42;101347.72;;;16.86;78.40